createdAt,value
2019-06-10T00:01:08.723Z,71.20
2019-06-10T00:03:57.886Z,71.20
2019-06-10T00:06:27.634Z,71.20
2019-06-10T00:08:58.111Z,71.30
2019-06-10T00:11:28.407Z,71.10
2019-06-10T00:13:58.567Z,71.10
2019-06-10T00:16:30.790Z,71.00
2019-06-10T00:19:02.795Z,71.10
2019-06-10T00:21:31.290Z,71.10
2019-06-10T00:24:02.582Z,71.10
2019-06-10T00:26:32.467Z,71.20
2019-06-10T00:29:03.127Z,71.10
2019-06-10T00:31:33.602Z,71.00
2019-06-10T00:34:04.689Z,70.90
2019-06-10T00:36:34.687Z,71.00
2019-06-10T00:39:07.267Z,70.90
2019-06-10T00:41:37.248Z,70.90
2019-06-10T00:44:08.076Z,70.90
2019-06-10T00:46:38.230Z,70.90
2019-06-10T00:49:09.812Z,70.90
2019-06-10T00:51:41.331Z,70.90
2019-06-10T00:54:15.299Z,70.80
2019-06-10T00:56:42.274Z,70.80
2019-06-10T00:59:13.388Z,70.80
2019-06-10T01:01:43.474Z,70.80
2019-06-10T01:04:16.091Z,70.80
2019-06-10T01:06:44.620Z,70.70
2019-06-10T01:09:14.956Z,70.70
2019-06-10T01:11:44.734Z,70.70
2019-06-10T01:14:15.508Z,70.60
2019-06-10T01:16:45.301Z,70.70
2019-06-10T01:19:15.821Z,70.60
2019-06-10T01:21:45.980Z,70.60
2019-06-10T01:24:15.701Z,70.60
2019-06-10T01:26:45.494Z,70.50
2019-06-10T01:29:16.398Z,70.50
2019-06-10T01:31:46.070Z,70.60
2019-06-10T01:34:15.810Z,70.50
2019-06-10T01:36:45.523Z,70.30
2019-06-10T01:39:22.412Z,70.30
2019-06-10T01:41:51.399Z,70.40
2019-06-10T01:44:22.014Z,70.60
2019-06-10T01:46:52.218Z,70.30
2019-06-10T01:49:22.061Z,70.40
2019-06-10T01:51:51.871Z,70.30
2019-06-10T01:54:21.806Z,70.30
2019-06-10T01:56:51.567Z,70.30
2019-06-10T01:59:22.215Z,70.50
2019-06-10T02:02:05.018Z,70.40
2019-06-10T02:04:34.829Z,70.30
2019-06-10T02:07:04.741Z,70.30
2019-06-10T02:09:34.540Z,70.30
2019-06-10T02:12:04.320Z,70.30
2019-06-10T02:14:34.167Z,70.30
2019-06-10T02:17:03.875Z,70.40
2019-06-10T02:19:33.735Z,70.20
2019-06-10T02:22:03.516Z,70.20
2019-06-10T02:24:33.459Z,70.20
2019-06-10T02:27:03.191Z,70.20
2019-06-10T02:29:32.882Z,70.10
2019-06-10T02:32:04.801Z,70.00
2019-06-10T02:34:39.027Z,70.00
2019-06-10T02:37:05.505Z,70.20
2019-06-10T02:39:38.892Z,70.10
2019-06-10T02:42:18.538Z,70.10
2019-06-10T02:44:46.712Z,70.00
2019-06-10T02:47:19.209Z,70.00
2019-06-10T02:49:57.471Z,70.10
2019-06-10T02:52:22.374Z,70.10
2019-06-10T02:54:53.422Z,70.00
2019-06-10T02:57:29.500Z,70.10
2019-06-10T02:59:54.341Z,70.00
2019-06-10T03:02:30.028Z,69.90
2019-06-10T03:04:55.959Z,69.90
2019-06-10T03:07:28.831Z,69.90
2019-06-10T03:09:57.161Z,70.10
2019-06-10T03:12:28.095Z,70.00
2019-06-10T03:14:57.994Z,70.00
2019-06-10T03:17:28.237Z,69.90
2019-06-10T03:19:58.105Z,69.90
2019-06-10T03:22:28.473Z,69.90
2019-06-10T03:24:58.416Z,69.90
2019-06-10T03:27:28.129Z,69.80
2019-06-10T03:29:57.990Z,69.70
2019-06-10T03:32:34.960Z,69.70
2019-06-10T03:34:59.103Z,69.80
2019-06-10T03:37:28.786Z,69.80
2019-06-10T03:39:58.608Z,69.60
2019-06-10T03:42:28.329Z,69.70
2019-06-10T03:44:58.075Z,69.70
2019-06-10T03:47:28.836Z,69.60
2019-06-10T03:49:58.727Z,69.40
2019-06-10T03:52:28.611Z,69.50
2019-06-10T03:54:58.449Z,69.50
2019-06-10T03:57:28.674Z,69.60
2019-06-10T03:59:58.689Z,69.50
2019-06-10T04:02:28.518Z,69.40
2019-06-10T04:04:58.291Z,69.60
2019-06-10T04:07:30.995Z,69.50
2019-06-10T04:09:59.326Z,69.40
2019-06-10T04:12:29.211Z,69.30
2019-06-10T04:14:58.965Z,69.10
2019-06-10T04:17:28.903Z,69.00
2019-06-10T04:20:09.246Z,69.00
2019-06-10T04:22:30.070Z,69.00
2019-06-10T04:24:59.759Z,69.00
2019-06-10T04:27:29.496Z,69.10
2019-06-10T04:29:59.354Z,69.10
2019-06-10T04:32:29.175Z,69.10
2019-06-10T04:34:58.968Z,69.00
2019-06-10T04:37:29.517Z,68.90
2019-06-10T04:39:59.446Z,68.60
2019-06-10T04:42:29.205Z,68.70
2019-06-10T04:44:59.047Z,69.00
2019-06-10T04:47:30.051Z,69.20
2019-06-10T04:50:00.025Z,69.10
2019-06-10T04:52:32.632Z,69.20
2019-06-10T04:55:02.547Z,69.10
2019-06-10T04:57:32.895Z,68.90
2019-06-10T05:00:10.824Z,68.90
2019-06-10T05:02:34.206Z,68.80
2019-06-10T05:05:04.098Z,68.70
2019-06-10T05:07:36.880Z,68.60
2019-06-10T05:10:06.003Z,68.60
2019-06-10T05:12:35.766Z,68.40
2019-06-10T05:15:06.036Z,68.00
2019-06-10T05:17:37.620Z,68.00
2019-06-10T05:20:07.540Z,68.00
2019-06-10T05:22:37.260Z,67.40
2019-06-10T05:25:07.335Z,68.50
2019-06-10T05:27:37.177Z,67.70
2019-06-10T05:30:07.512Z,67.80
2019-06-10T05:32:37.417Z,68.00
2019-06-10T05:35:07.431Z,68.10
2019-06-10T05:37:37.219Z,67.80
2019-06-10T05:40:07.005Z,67.70
2019-06-10T05:42:36.948Z,67.90
2019-06-10T05:45:07.440Z,67.90
2019-06-10T05:47:37.386Z,68.00
2019-06-10T05:50:07.456Z,67.90
2019-06-10T05:52:37.191Z,67.80
2019-06-10T05:55:06.957Z,67.90
2019-06-10T05:57:36.789Z,67.80
2019-06-10T06:00:13.830Z,67.80
2019-06-10T06:02:40.103Z,67.90
2019-06-10T06:05:09.842Z,67.80
2019-06-10T06:07:42.137Z,67.80
2019-06-10T06:10:12.971Z,67.70
2019-06-10T06:12:44.704Z,67.80
2019-06-10T06:15:14.464Z,67.80
2019-06-10T06:17:44.156Z,67.80
2019-06-10T06:20:14.034Z,67.80
2019-06-10T06:22:43.838Z,67.70
2019-06-10T06:25:16.229Z,68.40
2019-06-10T06:27:46.618Z,67.70
2019-06-10T06:30:18.883Z,67.70
2019-06-10T06:32:49.292Z,67.80
2019-06-10T06:35:19.580Z,67.30
2019-06-10T06:37:50.057Z,67.20
2019-06-10T06:40:23.070Z,67.20
2019-06-10T06:42:53.713Z,67.20
2019-06-10T06:45:24.645Z,67.10
2019-06-10T06:47:55.128Z,67.10
2019-06-10T06:50:25.633Z,67.20
2019-06-10T06:53:20.038Z,67.10
2019-06-10T06:55:26.923Z,66.90
2019-06-10T06:57:56.720Z,66.90
2019-06-10T07:00:48.888Z,66.80
2019-06-10T07:03:05.907Z,66.80
2019-06-10T07:05:37.198Z,66.90
2019-06-10T07:08:36.236Z,66.90
2019-06-10T07:11:06.316Z,66.90
2019-06-10T07:13:39.112Z,66.60
2019-06-10T07:16:07.623Z,67.00
2019-06-10T07:18:42.627Z,67.40
2019-06-10T07:21:08.671Z,67.50
2019-06-10T07:23:41.136Z,67.60
2019-06-10T07:26:09.799Z,68.00
2019-06-10T07:28:40.784Z,67.70
2019-06-10T07:31:24.015Z,68.00
2019-06-10T07:33:49.451Z,67.70
2019-06-10T07:36:23.327Z,67.30
2019-06-10T07:38:53.832Z,66.90
2019-06-10T07:41:23.863Z,66.80
2019-06-10T07:43:54.126Z,66.70
2019-06-10T07:46:23.947Z,66.80
2019-06-10T07:48:56.830Z,66.80
2019-06-10T07:51:26.704Z,66.80
2019-06-10T07:53:56.514Z,67.00
2019-06-10T07:56:29.276Z,67.10
2019-06-10T07:58:57.942Z,67.20
2019-06-10T08:01:27.789Z,67.10
2019-06-10T08:03:57.548Z,67.20
2019-06-10T08:06:27.468Z,67.30
2019-06-10T08:08:57.385Z,67.40
2019-06-10T08:11:27.258Z,67.40
2019-06-10T08:13:57.203Z,67.30
2019-06-10T08:16:27.104Z,67.20
2019-06-10T08:19:22.021Z,66.90
2019-06-10T08:21:28.739Z,67.20
2019-06-10T08:23:58.763Z,67.50
2019-06-10T08:30:27.416Z,66.90
2019-06-10T08:32:56.646Z,67.00
2019-06-10T08:35:37.985Z,67.00
2019-06-10T08:37:58.090Z,67.40
2019-06-10T08:40:28.005Z,67.70
2019-06-10T08:42:57.899Z,67.70
2019-06-10T08:45:27.922Z,68.00
2019-06-10T08:48:02.776Z,67.80
2019-06-10T08:50:33.640Z,67.90
2019-06-10T08:53:13.700Z,67.60
2019-06-10T08:55:38.036Z,67.40
2019-06-10T08:58:07.939Z,67.80
2019-06-10T09:00:39.195Z,67.30
2019-06-10T09:03:14.870Z,67.90
2019-06-10T09:05:49.061Z,67.90
2019-06-10T09:08:16.180Z,68.70
2019-06-10T09:10:49.429Z,68.30
2019-06-10T09:13:17.573Z,68.50
2019-06-10T09:16:03.716Z,68.50
2019-06-10T09:18:20.051Z,69.30
2019-06-10T09:20:55.284Z,68.90
2019-06-10T09:23:24.838Z,68.80
2019-06-10T09:25:57.285Z,69.00
2019-06-10T09:28:24.952Z,69.60
2019-06-10T09:30:59.366Z,69.80
2019-06-10T09:33:26.139Z,70.00
2019-06-10T09:35:56.010Z,69.50
2019-06-10T09:38:25.937Z,69.30
2019-06-10T09:41:01.900Z,68.80
2019-06-10T09:43:29.996Z,69.30
2019-06-10T09:48:29.887Z,69.30
2019-06-10T09:51:02.270Z,69.20
2019-06-10T09:53:42.003Z,69.30
2019-06-10T09:56:04.229Z,69.10
2019-06-10T09:58:34.443Z,68.90
2019-06-10T10:01:04.945Z,68.70
2019-06-10T10:03:34.764Z,68.50
2019-06-10T10:06:14.511Z,68.30
2019-06-10T10:08:36.053Z,68.30
2019-06-10T10:11:05.871Z,68.40
2019-06-10T10:13:35.982Z,68.30
2019-06-10T10:16:05.923Z,68.70
2019-06-10T10:18:35.777Z,68.80
2019-06-10T10:21:05.647Z,68.30
2019-06-10T10:23:50.112Z,68.30
2019-06-10T10:26:07.092Z,67.90
2019-06-10T10:28:36.955Z,67.80
2019-06-10T10:31:06.707Z,67.70
2019-06-10T10:33:36.560Z,67.90
2019-06-10T10:36:06.328Z,67.90
2019-06-10T10:38:36.111Z,68.00
2019-06-10T10:41:06.187Z,67.60
2019-06-10T10:43:37.562Z,67.40
2019-06-10T10:46:08.015Z,67.40
2019-06-10T10:48:37.810Z,67.80
2019-06-10T10:51:07.618Z,68.60
2019-06-10T10:53:37.571Z,68.50
2019-06-10T10:56:07.449Z,68.50
2019-06-10T10:58:37.171Z,72.50
2019-06-10T11:01:06.935Z,71.50
2019-06-10T11:03:36.681Z,70.80
2019-06-10T11:06:06.744Z,70.30
2019-06-10T11:08:36.642Z,69.90
2019-06-10T11:11:06.370Z,69.80
2019-06-10T11:13:36.501Z,69.60
2019-06-10T11:16:06.362Z,69.30
2019-06-10T11:18:36.279Z,68.50
2019-06-10T11:21:06.540Z,68.30
2019-06-10T11:23:36.451Z,68.30
2019-06-10T11:26:06.322Z,68.00
2019-06-10T11:28:36.172Z,68.60
2019-06-10T11:31:05.911Z,67.60
2019-06-10T11:33:35.758Z,68.50
2019-06-10T11:36:05.559Z,68.00
2019-06-10T12:42:56.729Z,68.00
2019-06-10T12:45:25.847Z,67.70
2019-06-10T12:47:58.349Z,67.50
2019-06-10T12:50:27.085Z,67.50
2019-06-10T12:52:58.544Z,67.40
2019-06-10T12:55:42.139Z,67.50
2019-06-10T12:58:04.375Z,67.30
2019-06-10T13:00:42.223Z,67.40
2019-06-10T13:03:12.879Z,67.30
2019-06-10T13:05:43.714Z,67.40
2019-06-10T13:08:15.305Z,67.30
2019-06-10T13:10:45.395Z,67.50
2019-06-10T13:13:15.333Z,67.40
2019-06-10T13:15:58.166Z,67.50
2019-06-10T13:18:28.039Z,67.50
2019-06-10T13:21:01.932Z,68.00
2019-06-10T13:23:34.413Z,67.50
2019-06-10T13:26:04.319Z,67.40
2019-06-10T13:28:32.882Z,67.20
2019-06-10T13:31:06.172Z,67.60
2019-06-10T13:33:34.433Z,67.50
2019-06-10T13:36:06.764Z,67.50
2019-06-10T13:38:35.833Z,67.30
2019-06-10T13:41:05.834Z,67.30
2019-06-10T13:43:37.243Z,67.10
2019-06-10T13:46:10.495Z,67.30
2019-06-10T13:48:39.701Z,67.30
2019-06-10T13:51:12.284Z,67.20
2019-06-10T13:53:42.576Z,67.20
2019-06-10T13:56:37.027Z,67.20
2019-06-10T13:58:46.316Z,67.20
2019-06-10T14:01:21.373Z,67.50
2019-06-10T14:03:47.192Z,67.40
2019-06-10T14:06:37.449Z,67.30
2019-06-10T14:08:49.273Z,67.40
2019-06-10T14:11:20.819Z,67.40
2019-06-10T14:13:52.616Z,67.50
2019-06-10T14:16:23.501Z,67.70
2019-06-10T14:18:54.268Z,67.80
2019-06-10T14:21:24.235Z,67.80
2019-06-10T14:23:54.089Z,67.70
2019-06-10T14:26:36.662Z,67.70
2019-06-10T14:28:57.150Z,67.60
2019-06-10T14:31:42.824Z,67.40
2019-06-10T14:34:00.316Z,67.40
2019-06-10T14:36:32.410Z,66.90
2019-06-10T14:39:01.890Z,66.50
2019-06-10T14:41:32.675Z,66.40
2019-06-10T14:44:04.573Z,66.30
2019-06-10T14:46:35.686Z,66.10
2019-06-10T14:49:06.723Z,66.00
2019-06-10T14:51:39.388Z,65.90
2019-06-10T14:54:09.398Z,65.80
2019-06-10T14:56:50.650Z,65.70
2019-06-10T14:59:14.949Z,65.60
2019-06-10T15:01:45.137Z,65.50
2019-06-10T15:04:16.703Z,65.40
2019-06-10T15:06:46.572Z,65.30
2019-06-10T15:09:16.494Z,65.30
2019-06-10T15:11:46.446Z,65.30
2019-06-10T15:14:17.713Z,65.10
2019-06-10T15:16:47.827Z,65.10
2019-06-10T15:19:24.731Z,65.30
2019-06-10T15:21:49.239Z,65.10
2019-06-10T15:24:20.397Z,65.00
2019-06-10T15:27:07.892Z,65.00
2019-06-10T15:29:23.463Z,64.90
2019-06-10T15:32:08.895Z,64.90
2019-06-10T15:34:25.173Z,65.10
2019-06-10T15:36:55.276Z,65.30
2019-06-10T15:39:25.065Z,65.40
2019-06-10T15:41:54.905Z,65.60
2019-06-10T15:44:47.721Z,65.60
2019-06-10T15:46:56.302Z,65.90
2019-06-10T15:49:26.319Z,65.80
2019-06-10T15:51:56.355Z,65.80
2019-06-10T15:54:26.141Z,65.90
2019-06-10T15:56:56.656Z,65.80
2019-06-10T15:59:26.704Z,65.90
2019-06-10T16:01:56.473Z,65.80
2019-06-10T16:04:29.632Z,65.80
2019-06-10T16:06:58.905Z,65.80
2019-06-10T16:09:28.778Z,65.80
2019-06-10T16:11:58.669Z,65.80
2019-06-10T16:14:28.431Z,65.80
2019-06-10T16:16:58.343Z,65.80
2019-06-10T16:19:28.337Z,65.70
2019-06-10T16:21:58.245Z,65.70
2019-06-10T16:24:29.120Z,65.70
2019-06-10T16:26:58.924Z,65.80
2019-06-10T16:29:33.292Z,65.70
2019-06-10T16:32:02.781Z,65.70
2019-06-10T16:34:32.651Z,65.60
2019-06-10T16:37:02.519Z,65.60
2019-06-10T16:39:32.681Z,65.60
2019-06-10T16:42:03.118Z,65.50
2019-06-10T16:44:33.162Z,65.50
2019-06-10T16:47:03.979Z,65.60
2019-06-10T16:49:33.861Z,65.60
2019-06-10T16:52:03.704Z,65.50
2019-06-10T16:54:33.531Z,65.50
2019-06-10T16:57:03.941Z,65.50
2019-06-10T16:59:33.974Z,65.50
2019-06-10T17:02:03.760Z,65.40
2019-06-10T17:04:33.558Z,65.50
2019-06-10T17:07:03.382Z,65.50
2019-06-10T17:09:33.430Z,65.50
2019-06-10T17:12:03.305Z,65.50
2019-06-10T17:14:33.718Z,65.50
2019-06-10T17:17:03.860Z,65.60
2019-06-10T17:19:33.690Z,65.50
2019-06-10T17:22:03.621Z,65.50
2019-06-10T17:24:34.021Z,65.50
2019-06-10T17:27:04.054Z,65.50
2019-06-10T17:29:33.875Z,65.50
2019-06-10T17:32:03.749Z,65.50
2019-06-10T17:34:34.048Z,65.50
2019-06-10T17:37:04.049Z,65.50
2019-06-10T17:39:34.543Z,65.50
2019-06-10T17:42:04.780Z,65.50
2019-06-10T17:44:34.648Z,65.50
2019-06-10T17:47:04.455Z,65.30
2019-06-10T17:49:34.874Z,65.40
2019-06-10T17:52:04.909Z,65.30
2019-06-10T17:54:34.874Z,65.30
2019-06-10T17:57:04.679Z,65.30
2019-06-10T17:59:35.483Z,65.20
2019-06-10T18:02:05.615Z,65.20
2019-06-10T18:04:35.502Z,65.20
2019-06-10T18:07:05.420Z,65.30
2019-06-10T18:09:37.077Z,65.30
2019-06-10T18:12:06.892Z,65.20
2019-06-10T18:14:36.801Z,65.10
2019-06-10T18:17:06.692Z,65.20
2019-06-10T18:19:37.497Z,65.20
2019-06-10T18:22:07.512Z,65.10
2019-06-10T18:24:37.346Z,65.10
2019-06-10T18:27:07.426Z,65.00
2019-06-10T18:29:37.395Z,64.50
2019-06-10T18:32:07.352Z,64.10
2019-06-10T18:34:38.067Z,64.20
2019-06-10T18:37:08.229Z,63.90
2019-06-10T18:39:38.102Z,63.70
2019-06-10T18:42:07.991Z,63.70
2019-06-10T18:44:37.873Z,63.60
2019-06-10T18:47:07.741Z,63.60
2019-06-10T18:49:38.014Z,63.40
2019-06-10T18:52:07.831Z,63.40
2019-06-10T18:54:37.684Z,63.30
2019-06-10T18:57:07.895Z,63.20
2019-06-10T18:59:38.386Z,63.20
2019-06-10T19:02:09.478Z,63.90
2019-06-10T19:04:40.104Z,63.10
2019-06-10T19:07:10.134Z,63.00
2019-06-10T19:09:47.351Z,63.00
2019-06-10T19:12:13.377Z,63.00
2019-06-10T19:14:43.055Z,62.90
2019-06-10T19:17:13.098Z,62.80
2019-06-10T19:19:43.207Z,62.90
2019-06-10T19:22:13.392Z,62.90
2019-06-10T19:24:44.751Z,62.90
2019-06-10T19:27:15.113Z,62.70
2019-06-10T19:29:50.781Z,62.80
2019-06-10T19:32:16.441Z,62.80
2019-06-10T19:34:48.464Z,63.00
2019-06-10T19:37:18.376Z,63.40
2019-06-10T19:39:53.270Z,63.50
2019-06-10T19:42:20.708Z,63.90
2019-06-10T19:44:52.382Z,64.10
2019-06-10T19:47:23.489Z,63.70
2019-06-10T19:49:54.063Z,63.60
2019-06-10T19:52:24.009Z,64.10
2019-06-10T19:55:02.652Z,64.00
2019-06-10T19:57:33.816Z,63.80
2019-06-10T20:00:12.440Z,64.30
2019-06-10T20:02:44.706Z,64.10
2019-06-10T20:05:13.786Z,63.60
2019-06-10T20:07:48.428Z,64.00
2019-06-10T20:10:15.200Z,64.90
2019-06-10T20:12:46.654Z,64.10
2019-06-10T20:15:22.687Z,64.20
2019-06-10T20:17:52.752Z,65.00
2019-06-10T20:20:22.901Z,64.40
2019-06-10T20:22:54.094Z,64.50
2019-06-10T20:25:24.859Z,64.50
2019-06-10T20:27:54.713Z,64.40
2019-06-10T20:30:28.610Z,64.50
2019-06-10T20:32:56.702Z,64.40
2019-06-10T20:35:26.722Z,64.30
2019-06-10T20:37:56.630Z,64.20
2019-06-10T20:40:26.484Z,64.20
2019-06-10T20:42:56.380Z,64.10
2019-06-10T20:45:26.704Z,64.20
2019-06-10T20:47:56.520Z,64.10
2019-06-10T20:50:26.433Z,64.00
2019-06-10T20:53:10.955Z,63.90
2019-06-10T20:55:40.504Z,63.90
2019-06-10T20:58:06.211Z,63.90
2019-06-10T21:00:36.321Z,63.80
2019-06-10T21:03:07.746Z,63.80
2019-06-10T21:05:39.440Z,63.80
2019-06-10T21:08:12.122Z,63.90
2019-06-10T21:10:44.680Z,63.80
2019-06-10T21:13:14.211Z,63.80
2019-06-10T21:15:47.498Z,63.90
2019-06-10T21:18:16.410Z,63.90
2019-06-10T21:20:49.623Z,63.70
2019-06-10T21:23:18.538Z,64.00
2019-06-10T21:25:50.732Z,63.60
2019-06-10T21:28:20.035Z,63.50
2019-06-10T21:30:54.917Z,63.60
2019-06-10T21:33:23.440Z,63.60
2019-06-10T21:35:54.835Z,63.50
2019-06-10T21:38:24.483Z,63.50
2019-06-10T21:40:54.347Z,63.40
2019-06-10T21:43:24.220Z,63.30
2019-06-10T21:45:57.610Z,63.30
2019-06-10T21:48:25.551Z,63.20
2019-06-10T21:50:56.039Z,63.30
2019-06-10T21:53:26.058Z,63.30
2019-06-10T21:55:55.941Z,63.20
2019-06-10T21:58:25.898Z,63.10
2019-06-10T22:01:11.586Z,63.10
2019-06-10T22:03:27.358Z,63.00
2019-06-10T22:05:57.188Z,63.10
2019-06-10T22:08:27.151Z,63.00
2019-06-10T22:10:57.006Z,63.00
2019-06-10T22:13:26.864Z,63.00
2019-06-10T22:15:57.190Z,62.90
2019-06-10T22:18:28.101Z,63.00
2019-06-10T22:20:58.063Z,62.90
2019-06-10T22:23:28.158Z,62.90
2019-06-10T22:25:58.013Z,62.80
2019-06-10T22:28:27.854Z,62.90
2019-06-10T22:31:15.028Z,62.60
2019-06-10T22:33:29.374Z,62.90
2019-06-10T22:35:59.340Z,63.70
2019-06-10T22:38:29.340Z,63.30
2019-06-10T22:40:59.316Z,63.00
2019-06-10T22:43:29.288Z,63.50
2019-06-10T22:45:59.927Z,63.10
2019-06-10T22:48:33.215Z,63.00
2019-06-10T22:51:02.584Z,63.10
2019-06-10T22:53:33.306Z,63.00
2019-06-10T22:56:03.398Z,63.00
2019-06-10T22:58:33.388Z,62.90
2019-06-10T23:01:04.285Z,62.90
2019-06-10T23:03:34.449Z,62.80
2019-06-10T23:06:04.289Z,62.90
2019-06-10T23:08:34.142Z,62.80
2019-06-10T23:11:04.179Z,62.20
2019-06-10T23:13:34.125Z,62.70
2019-06-10T23:16:04.036Z,62.80
2019-06-10T23:18:33.899Z,62.60
2019-06-10T23:21:04.667Z,62.70
2019-06-10T23:23:34.659Z,62.60
2019-06-10T23:26:04.669Z,62.50
2019-06-10T23:28:34.518Z,62.50
2019-06-10T23:31:05.250Z,62.50
2019-06-10T23:33:35.537Z,62.50
2019-06-10T23:36:05.387Z,62.50
2019-06-10T23:38:35.264Z,62.50
2019-06-10T23:41:05.139Z,62.50
2019-06-10T23:43:35.022Z,62.40
2019-06-10T23:46:04.875Z,62.40
2019-06-10T23:48:34.761Z,62.40
2019-06-10T23:51:05.170Z,62.40
2019-06-10T23:53:35.125Z,62.30
2019-06-10T23:56:05.243Z,62.30
2019-06-10T23:58:35.335Z,62.40
